sensor_id;sensor_type;location;lat;lon;timestamp;P1;durP1;ratioP1;P2;durP2;ratioP2
15356;SDS011;7778;48.792;9.260;2023-08-12T00:01:40;6.57;;;4.15;;
15356;SDS011;7778;48.792;9.260;2023-08-12T00:04:25;5.22;;;3.38;;
15356;SDS011;7778;48.792;9.260;2023-08-12T00:07:12;5.47;;;3.50;;
15356;SDS011;7778;48.792;9.260;2023-08-12T00:09:58;6.38;;;3.40;;
15356;SDS011;7778;48.792;9.260;2023-08-12T00:12:44;5.95;;;3.67;;
15356;SDS011;7778;48.792;9.260;2023-08-12T00:15:30;5.22;;;3.83;;
15356;SDS011;7778;48.792;9.260;2023-08-12T00:18:16;9.15;;;4.05;;
15356;SDS011;7778;48.792;9.260;2023-08-12T00:21:04;5.07;;;3.75;;
15356;SDS011;7778;48.792;9.260;2023-08-12T00:23:55;4.15;;;3.38;;
15356;SDS011;7778;48.792;9.260;2023-08-12T00:26:40;5.18;;;3.53;;
15356;SDS011;7778;48.792;9.260;2023-08-12T00:29:26;4.78;;;3.72;;
15356;SDS011;7778;48.792;9.260;2023-08-12T00:32:12;5.65;;;3.45;;
15356;SDS011;7778;48.792;9.260;2023-08-12T00:34:58;4.15;;;3.17;;
15356;SDS011;7778;48.792;9.260;2023-08-12T00:37:44;5.03;;;3.55;;
15356;SDS011;7778;48.792;9.260;2023-08-12T00:40:32;5.45;;;3.55;;
15356;SDS011;7778;48.792;9.260;2023-08-12T00:43:17;4.45;;;3.78;;
15356;SDS011;7778;48.792;9.260;2023-08-12T00:46:03;7.78;;;3.88;;
15356;SDS011;7778;48.792;9.260;2023-08-12T00:48:49;8.10;;;4.20;;
15356;SDS011;7778;48.792;9.260;2023-08-12T00:51:35;7.03;;;4.32;;
15356;SDS011;7778;48.792;9.260;2023-08-12T00:54:26;7.75;;;3.90;;
15356;SDS011;7778;48.792;9.260;2023-08-12T00:57:14;5.93;;;4.13;;
15356;SDS011;7778;48.792;9.260;2023-08-12T01:00:03;5.47;;;4.10;;
15356;SDS011;7778;48.792;9.260;2023-08-12T01:02:50;6.28;;;3.83;;
15356;SDS011;7778;48.792;9.260;2023-08-12T01:05:37;6.32;;;4.15;;
15356;SDS011;7778;48.792;9.260;2023-08-12T01:08:24;9.38;;;4.00;;
15356;SDS011;7778;48.792;9.260;2023-08-12T01:11:25;7.18;;;4.60;;
15356;SDS011;7778;48.792;9.260;2023-08-12T01:14:17;5.95;;;4.00;;
15356;SDS011;7778;48.792;9.260;2023-08-12T01:17:12;7.63;;;4.22;;
15356;SDS011;7778;48.792;9.260;2023-08-12T01:20:03;7.32;;;4.25;;
15356;SDS011;7778;48.792;9.260;2023-08-12T01:22:55;9.00;;;5.10;;
15356;SDS011;7778;48.792;9.260;2023-08-12T01:25:44;7.05;;;4.57;;
15356;SDS011;7778;48.792;9.260;2023-08-12T01:28:30;7.80;;;4.78;;
15356;SDS011;7778;48.792;9.260;2023-08-12T01:31:18;20.88;;;10.60;;
15356;SDS011;7778;48.792;9.260;2023-08-12T01:34:12;8.93;;;5.85;;
15356;SDS011;7778;48.792;9.260;2023-08-12T01:37:03;7.88;;;4.68;;
15356;SDS011;7778;48.792;9.260;2023-08-12T01:39:52;7.80;;;4.50;;
15356;SDS011;7778;48.792;9.260;2023-08-12T01:42:41;7.82;;;4.75;;
15356;SDS011;7778;48.792;9.260;2023-08-12T01:45:27;9.20;;;4.70;;
15356;SDS011;7778;48.792;9.260;2023-08-12T01:48:15;7.28;;;4.32;;
15356;SDS011;7778;48.792;9.260;2023-08-12T01:51:03;7.45;;;4.75;;
15356;SDS011;7778;48.792;9.260;2023-08-12T01:53:49;7.40;;;3.92;;
15356;SDS011;7778;48.792;9.260;2023-08-12T01:56:35;7.28;;;4.10;;
15356;SDS011;7778;48.792;9.260;2023-08-12T01:59:22;7.10;;;3.75;;
15356;SDS011;7778;48.792;9.260;2023-08-12T02:02:08;6.10;;;4.15;;
15356;SDS011;7778;48.792;9.260;2023-08-12T02:04:53;4.10;;;3.30;;
15356;SDS011;7778;48.792;9.260;2023-08-12T02:07:39;6.97;;;4.30;;
15356;SDS011;7778;48.792;9.260;2023-08-12T02:10:24;7.50;;;4.80;;
15356;SDS011;7778;48.792;9.260;2023-08-12T02:13:10;6.07;;;4.25;;
15356;SDS011;7778;48.792;9.260;2023-08-12T02:15:57;5.97;;;4.03;;
15356;SDS011;7778;48.792;9.260;2023-08-12T02:18:43;8.82;;;4.90;;
15356;SDS011;7778;48.792;9.260;2023-08-12T02:21:28;6.88;;;4.57;;
15356;SDS011;7778;48.792;9.260;2023-08-12T02:24:15;6.55;;;4.15;;
15356;SDS011;7778;48.792;9.260;2023-08-12T02:27:00;6.00;;;4.10;;
15356;SDS011;7778;48.792;9.260;2023-08-12T02:29:46;6.85;;;3.70;;
15356;SDS011;7778;48.792;9.260;2023-08-12T02:32:33;6.05;;;3.90;;
15356;SDS011;7778;48.792;9.260;2023-08-12T02:35:19;6.75;;;4.63;;
15356;SDS011;7778;48.792;9.260;2023-08-12T02:38:05;6.65;;;3.95;;
15356;SDS011;7778;48.792;9.260;2023-08-12T02:40:50;6.93;;;3.90;;
15356;SDS011;7778;48.792;9.260;2023-08-12T02:43:36;5.60;;;4.43;;
15356;SDS011;7778;48.792;9.260;2023-08-12T02:46:21;5.75;;;4.15;;
15356;SDS011;7778;48.792;9.260;2023-08-12T02:49:10;5.93;;;4.10;;
15356;SDS011;7778;48.792;9.260;2023-08-12T02:51:55;5.70;;;3.92;;
15356;SDS011;7778;48.792;9.260;2023-08-12T02:54:41;8.35;;;4.28;;
15356;SDS011;7778;48.792;9.260;2023-08-12T02:57:26;5.72;;;3.72;;
15356;SDS011;7778;48.792;9.260;2023-08-12T03:00:12;5.55;;;4.07;;
15356;SDS011;7778;48.792;9.260;2023-08-12T03:02:59;6.00;;;4.07;;
15356;SDS011;7778;48.792;9.260;2023-08-12T03:05:46;5.28;;;3.70;;
15356;SDS011;7778;48.792;9.260;2023-08-12T03:08:33;8.88;;;4.10;;
15356;SDS011;7778;48.792;9.260;2023-08-12T03:11:18;6.10;;;4.03;;
15356;SDS011;7778;48.792;9.260;2023-08-12T03:14:04;5.20;;;4.10;;
15356;SDS011;7778;48.792;9.260;2023-08-12T03:16:49;5.07;;;4.07;;
15356;SDS011;7778;48.792;9.260;2023-08-12T03:19:35;5.78;;;3.95;;
15356;SDS011;7778;48.792;9.260;2023-08-12T03:22:22;8.65;;;3.83;;
15356;SDS011;7778;48.792;9.260;2023-08-12T03:25:08;7.88;;;4.43;;
15356;SDS011;7778;48.792;9.260;2023-08-12T03:27:54;6.32;;;4.35;;
15356;SDS011;7778;48.792;9.260;2023-08-12T03:30:39;6.28;;;4.47;;
15356;SDS011;7778;48.792;9.260;2023-08-12T03:33:24;7.15;;;4.57;;
15356;SDS011;7778;48.792;9.260;2023-08-12T03:36:10;6.63;;;4.07;;
15356;SDS011;7778;48.792;9.260;2023-08-12T03:38:57;6.32;;;4.70;;
15356;SDS011;7778;48.792;9.260;2023-08-12T03:41:43;7.07;;;4.20;;
15356;SDS011;7778;48.792;9.260;2023-08-12T03:44:28;6.22;;;4.50;;
15356;SDS011;7778;48.792;9.260;2023-08-12T03:47:14;6.35;;;4.13;;
15356;SDS011;7778;48.792;9.260;2023-08-12T03:49:59;10.02;;;3.90;;
15356;SDS011;7778;48.792;9.260;2023-08-12T03:52:45;5.75;;;3.85;;
15356;SDS011;7778;48.792;9.260;2023-08-12T03:55:32;6.10;;;3.72;;
15356;SDS011;7778;48.792;9.260;2023-08-12T03:58:18;5.90;;;3.88;;
15356;SDS011;7778;48.792;9.260;2023-08-12T04:01:04;4.75;;;3.85;;
15356;SDS011;7778;48.792;9.260;2023-08-12T04:03:49;4.78;;;3.58;;
15356;SDS011;7778;48.792;9.260;2023-08-12T04:06:35;6.68;;;4.00;;
15356;SDS011;7778;48.792;9.260;2023-08-12T04:09:21;5.88;;;4.10;;
15356;SDS011;7778;48.792;9.260;2023-08-12T04:12:08;8.25;;;3.70;;
15356;SDS011;7778;48.792;9.260;2023-08-12T04:14:53;5.45;;;4.05;;
15356;SDS011;7778;48.792;9.260;2023-08-12T04:17:39;7.20;;;3.80;;
15356;SDS011;7778;48.792;9.260;2023-08-12T04:20:25;10.02;;;4.50;;
15356;SDS011;7778;48.792;9.260;2023-08-12T04:23:10;5.57;;;4.15;;
15356;SDS011;7778;48.792;9.260;2023-08-12T04:25:55;5.88;;;4.10;;
15356;SDS011;7778;48.792;9.260;2023-08-12T04:28:42;5.32;;;3.90;;
15356;SDS011;7778;48.792;9.260;2023-08-12T04:31:28;6.10;;;3.78;;
15356;SDS011;7778;48.792;9.260;2023-08-12T04:34:13;5.20;;;4.07;;
15356;SDS011;7778;48.792;9.260;2023-08-12T04:36:59;5.47;;;3.78;;
15356;SDS011;7778;48.792;9.260;2023-08-12T04:39:44;4.57;;;3.65;;
15356;SDS011;7778;48.792;9.260;2023-08-12T04:42:31;5.28;;;3.83;;
15356;SDS011;7778;48.792;9.260;2023-08-12T04:45:18;6.20;;;3.83;;
15356;SDS011;7778;48.792;9.260;2023-08-12T04:48:04;6.15;;;4.25;;
15356;SDS011;7778;48.792;9.260;2023-08-12T04:50:51;8.63;;;4.97;;
15356;SDS011;7778;48.792;9.260;2023-08-12T04:53:38;5.38;;;4.15;;
15356;SDS011;7778;48.792;9.260;2023-08-12T04:56:23;7.13;;;4.50;;
15356;SDS011;7778;48.792;9.260;2023-08-12T04:59:12;7.30;;;4.43;;
15356;SDS011;7778;48.792;9.260;2023-08-12T05:01:59;7.72;;;4.50;;
15356;SDS011;7778;48.792;9.260;2023-08-12T05:04:47;8.10;;;4.70;;
15356;SDS011;7778;48.792;9.260;2023-08-12T05:07:33;7.68;;;4.40;;
15356;SDS011;7778;48.792;9.260;2023-08-12T05:10:19;6.80;;;4.32;;
15356;SDS011;7778;48.792;9.260;2023-08-12T05:13:04;4.85;;;4.05;;
15356;SDS011;7778;48.792;9.260;2023-08-12T05:15:50;8.00;;;3.92;;
15356;SDS011;7778;48.792;9.260;2023-08-12T05:18:37;6.00;;;3.97;;
15356;SDS011;7778;48.792;9.260;2023-08-12T05:21:22;4.55;;;3.65;;
15356;SDS011;7778;48.792;9.260;2023-08-12T05:24:08;5.43;;;4.07;;
15356;SDS011;7778;48.792;9.260;2023-08-12T05:26:55;6.55;;;4.22;;
15356;SDS011;7778;48.792;9.260;2023-08-12T05:29:40;6.25;;;3.83;;
15356;SDS011;7778;48.792;9.260;2023-08-12T05:32:26;5.95;;;4.28;;
15356;SDS011;7778;48.792;9.260;2023-08-12T05:35:13;6.93;;;4.55;;
15356;SDS011;7778;48.792;9.260;2023-08-12T05:37:58;7.65;;;4.30;;
15356;SDS011;7778;48.792;9.260;2023-08-12T05:40:44;5.90;;;4.28;;
15356;SDS011;7778;48.792;9.260;2023-08-12T05:43:29;5.20;;;3.92;;
15356;SDS011;7778;48.792;9.260;2023-08-12T05:46:15;8.43;;;4.30;;
15356;SDS011;7778;48.792;9.260;2023-08-12T05:49:01;6.50;;;4.60;;
15356;SDS011;7778;48.792;9.260;2023-08-12T05:51:48;8.77;;;4.53;;
15356;SDS011;7778;48.792;9.260;2023-08-12T05:54:33;5.25;;;4.25;;
15356;SDS011;7778;48.792;9.260;2023-08-12T05:57:19;8.73;;;4.88;;
15356;SDS011;7778;48.792;9.260;2023-08-12T06:00:05;5.93;;;4.68;;
15356;SDS011;7778;48.792;9.260;2023-08-12T06:02:52;8.57;;;4.63;;
15356;SDS011;7778;48.792;9.260;2023-08-12T06:05:38;5.68;;;4.22;;
15356;SDS011;7778;48.792;9.260;2023-08-12T06:08:26;6.20;;;4.13;;
15356;SDS011;7778;48.792;9.260;2023-08-12T06:11:12;7.15;;;4.40;;
15356;SDS011;7778;48.792;9.260;2023-08-12T06:13:57;5.55;;;4.35;;
15356;SDS011;7778;48.792;9.260;2023-08-12T06:16:43;6.20;;;4.68;;
15356;SDS011;7778;48.792;9.260;2023-08-12T06:19:28;5.40;;;3.72;;
15356;SDS011;7778;48.792;9.260;2023-08-12T06:22:14;6.65;;;4.60;;
15356;SDS011;7778;48.792;9.260;2023-08-12T06:25:01;7.93;;;4.32;;
15356;SDS011;7778;48.792;9.260;2023-08-12T06:27:47;5.63;;;4.10;;
15356;SDS011;7778;48.792;9.260;2023-08-12T06:30:32;7.20;;;4.35;;
15356;SDS011;7778;48.792;9.260;2023-08-12T06:33:18;6.70;;;4.70;;
15356;SDS011;7778;48.792;9.260;2023-08-12T06:36:04;5.28;;;4.40;;
15356;SDS011;7778;48.792;9.260;2023-08-12T06:38:51;5.43;;;4.60;;
15356;SDS011;7778;48.792;9.260;2023-08-12T06:41:38;7.35;;;4.68;;
15356;SDS011;7778;48.792;9.260;2023-08-12T06:44:23;6.43;;;4.43;;
15356;SDS011;7778;48.792;9.260;2023-08-12T06:47:09;8.13;;;4.57;;
15356;SDS011;7778;48.792;9.260;2023-08-12T06:49:54;7.13;;;4.57;;
15356;SDS011;7778;48.792;9.260;2023-08-12T06:52:40;6.78;;;4.00;;
15356;SDS011;7778;48.792;9.260;2023-08-12T06:55:25;6.85;;;3.88;;
15356;SDS011;7778;48.792;9.260;2023-08-12T06:58:12;5.35;;;3.95;;
15356;SDS011;7778;48.792;9.260;2023-08-12T07:00:58;5.85;;;3.95;;
15356;SDS011;7778;48.792;9.260;2023-08-12T07:03:44;5.10;;;4.13;;
15356;SDS011;7778;48.792;9.260;2023-08-12T07:06:30;6.60;;;4.28;;
15356;SDS011;7778;48.792;9.260;2023-08-12T07:09:15;6.53;;;3.97;;
15356;SDS011;7778;48.792;9.260;2023-08-12T07:12:01;6.97;;;3.78;;
15356;SDS011;7778;48.792;9.260;2023-08-12T07:14:49;5.75;;;3.55;;
15356;SDS011;7778;48.792;9.260;2023-08-12T07:17:34;5.43;;;3.47;;
15356;SDS011;7778;48.792;9.260;2023-08-12T07:20:20;5.35;;;3.65;;
15356;SDS011;7778;48.792;9.260;2023-08-12T07:23:06;5.05;;;3.55;;
15356;SDS011;7778;48.792;9.260;2023-08-12T07:25:51;4.05;;;3.47;;
15356;SDS011;7778;48.792;9.260;2023-08-12T07:28:37;4.80;;;3.50;;
15356;SDS011;7778;48.792;9.260;2023-08-12T07:31:24;4.28;;;3.50;;
15356;SDS011;7778;48.792;9.260;2023-08-12T07:34:10;5.07;;;3.83;;
15356;SDS011;7778;48.792;9.260;2023-08-12T07:36:56;5.25;;;3.60;;
15356;SDS011;7778;48.792;9.260;2023-08-12T07:39:42;5.93;;;3.53;;
15356;SDS011;7778;48.792;9.260;2023-08-12T07:42:27;4.32;;;3.60;;
15356;SDS011;7778;48.792;9.260;2023-08-12T07:45:13;11.57;;;3.83;;
15356;SDS011;7778;48.792;9.260;2023-08-12T07:48:00;5.35;;;3.58;;
15356;SDS011;7778;48.792;9.260;2023-08-12T07:50:46;6.18;;;3.90;;
15356;SDS011;7778;48.792;9.260;2023-08-12T07:53:32;5.43;;;3.85;;
15356;SDS011;7778;48.792;9.260;2023-08-12T07:56:18;5.40;;;4.00;;
15356;SDS011;7778;48.792;9.260;2023-08-12T07:59:04;5.50;;;3.78;;
15356;SDS011;7778;48.792;9.260;2023-08-12T08:01:51;5.70;;;3.97;;
15356;SDS011;7778;48.792;9.260;2023-08-12T08:04:37;4.97;;;3.63;;
15356;SDS011;7778;48.792;9.260;2023-08-12T08:07:23;5.03;;;3.50;;
15356;SDS011;7778;48.792;9.260;2023-08-12T08:10:09;6.93;;;3.80;;
15356;SDS011;7778;48.792;9.260;2023-08-12T08:12:55;6.90;;;3.90;;
15356;SDS011;7778;48.792;9.260;2023-08-12T08:15:40;4.75;;;3.65;;
15356;SDS011;7778;48.792;9.260;2023-08-12T08:18:26;6.63;;;3.67;;
15356;SDS011;7778;48.792;9.260;2023-08-12T08:21:13;5.90;;;4.13;;
15356;SDS011;7778;48.792;9.260;2023-08-12T08:23:59;6.82;;;3.88;;
15356;SDS011;7778;48.792;9.260;2023-08-12T08:26:44;6.43;;;3.97;;
15356;SDS011;7778;48.792;9.260;2023-08-12T08:29:30;4.45;;;3.35;;
15356;SDS011;7778;48.792;9.260;2023-08-12T08:32:16;3.85;;;3.30;;
15356;SDS011;7778;48.792;9.260;2023-08-12T08:35:02;4.85;;;3.25;;
15356;SDS011;7778;48.792;9.260;2023-08-12T08:37:49;5.05;;;3.42;;
15356;SDS011;7778;48.792;9.260;2023-08-12T08:40:35;6.18;;;3.85;;
15356;SDS011;7778;48.792;9.260;2023-08-12T08:43:21;5.05;;;3.67;;
15356;SDS011;7778;48.792;9.260;2023-08-12T08:46:07;4.00;;;3.60;;
15356;SDS011;7778;48.792;9.260;2023-08-12T08:48:53;4.03;;;3.33;;
15356;SDS011;7778;48.792;9.260;2023-08-12T08:51:40;6.93;;;3.60;;
15356;SDS011;7778;48.792;9.260;2023-08-12T08:54:29;4.15;;;3.35;;
15356;SDS011;7778;48.792;9.260;2023-08-12T08:57:15;5.15;;;3.72;;
15356;SDS011;7778;48.792;9.260;2023-08-12T09:00:01;4.82;;;3.72;;
15356;SDS011;7778;48.792;9.260;2023-08-12T09:02:51;5.00;;;3.97;;
15356;SDS011;7778;48.792;9.260;2023-08-12T09:05:38;5.50;;;3.80;;
15356;SDS011;7778;48.792;9.260;2023-08-12T09:08:25;4.93;;;3.45;;
15356;SDS011;7778;48.792;9.260;2023-08-12T09:11:15;4.63;;;3.92;;
15356;SDS011;7778;48.792;9.260;2023-08-12T09:14:03;4.82;;;3.47;;
15356;SDS011;7778;48.792;9.260;2023-08-12T09:16:50;4.88;;;3.50;;
15356;SDS011;7778;48.792;9.260;2023-08-12T09:19:36;4.53;;;3.50;;
15356;SDS011;7778;48.792;9.260;2023-08-12T09:22:22;3.40;;;3.00;;
15356;SDS011;7778;48.792;9.260;2023-08-12T09:25:10;5.97;;;3.42;;
15356;SDS011;7778;48.792;9.260;2023-08-12T09:27:59;3.28;;;2.97;;
15356;SDS011;7778;48.792;9.260;2023-08-12T09:30:49;3.85;;;3.00;;
15356;SDS011;7778;48.792;9.260;2023-08-12T09:33:38;4.05;;;3.35;;
15356;SDS011;7778;48.792;9.260;2023-08-12T09:36:27;3.50;;;2.95;;
15356;SDS011;7778;48.792;9.260;2023-08-12T09:39:14;7.05;;;3.53;;
15356;SDS011;7778;48.792;9.260;2023-08-12T09:42:00;6.20;;;3.40;;
15356;SDS011;7778;48.792;9.260;2023-08-12T09:44:48;7.05;;;3.28;;
15356;SDS011;7778;48.792;9.260;2023-08-12T09:47:35;3.78;;;3.00;;
15356;SDS011;7778;48.792;9.260;2023-08-12T09:50:25;3.35;;;2.67;;
15356;SDS011;7778;48.792;9.260;2023-08-12T09:53:12;4.25;;;2.70;;
15356;SDS011;7778;48.792;9.260;2023-08-12T09:55:58;3.95;;;3.03;;
15356;SDS011;7778;48.792;9.260;2023-08-12T09:58:49;5.60;;;3.00;;
15356;SDS011;7778;48.792;9.260;2023-08-12T10:01:36;5.63;;;3.20;;
15356;SDS011;7778;48.792;9.260;2023-08-12T10:04:27;3.70;;;3.00;;
15356;SDS011;7778;48.792;9.260;2023-08-12T10:07:15;4.35;;;2.50;;
15356;SDS011;7778;48.792;9.260;2023-08-12T10:10:03;4.38;;;3.08;;
15356;SDS011;7778;48.792;9.260;2023-08-12T10:12:51;3.80;;;2.22;;
15356;SDS011;7778;48.792;9.260;2023-08-12T10:15:37;5.40;;;2.95;;
15356;SDS011;7778;48.792;9.260;2023-08-12T10:18:24;4.78;;;3.65;;
15356;SDS011;7778;48.792;9.260;2023-08-12T10:21:11;4.47;;;3.05;;
15356;SDS011;7778;48.792;9.260;2023-08-12T10:23:58;4.22;;;3.05;;
15356;SDS011;7778;48.792;9.260;2023-08-12T10:26:44;4.00;;;3.10;;
15356;SDS011;7778;48.792;9.260;2023-08-12T10:29:31;3.55;;;2.67;;
15356;SDS011;7778;48.792;9.260;2023-08-12T10:32:16;4.13;;;2.60;;
15356;SDS011;7778;48.792;9.260;2023-08-12T10:35:03;3.25;;;2.40;;
15356;SDS011;7778;48.792;9.260;2023-08-12T10:37:52;3.60;;;2.70;;
15356;SDS011;7778;48.792;9.260;2023-08-12T10:40:38;6.68;;;3.00;;
15356;SDS011;7778;48.792;9.260;2023-08-12T10:43:25;4.18;;;2.88;;
15356;SDS011;7778;48.792;9.260;2023-08-12T10:46:20;5.78;;;3.20;;
15356;SDS011;7778;48.792;9.260;2023-08-12T10:49:07;4.60;;;2.60;;
15356;SDS011;7778;48.792;9.260;2023-08-12T10:51:56;3.50;;;2.70;;
15356;SDS011;7778;48.792;9.260;2023-08-12T10:54:42;6.90;;;2.75;;
15356;SDS011;7778;48.792;9.260;2023-08-12T10:57:34;4.97;;;3.10;;
15356;SDS011;7778;48.792;9.260;2023-08-12T11:00:22;2.80;;;2.50;;
15356;SDS011;7778;48.792;9.260;2023-08-12T11:03:10;2.95;;;2.63;;
15356;SDS011;7778;48.792;9.260;2023-08-12T11:05:55;3.55;;;2.45;;
15356;SDS011;7778;48.792;9.260;2023-08-12T11:08:47;4.85;;;2.90;;
15356;SDS011;7778;48.792;9.260;2023-08-12T11:11:37;3.38;;;2.40;;
15356;SDS011;7778;48.792;9.260;2023-08-12T11:14:25;3.08;;;2.50;;
15356;SDS011;7778;48.792;9.260;2023-08-12T11:17:11;3.80;;;2.53;;
15356;SDS011;7778;48.792;9.260;2023-08-12T11:19:59;3.33;;;2.40;;
15356;SDS011;7778;48.792;9.260;2023-08-12T11:22:47;3.90;;;2.92;;
15356;SDS011;7778;48.792;9.260;2023-08-12T11:25:36;3.28;;;2.45;;
15356;SDS011;7778;48.792;9.260;2023-08-12T11:28:33;7.60;;;2.95;;
15356;SDS011;7778;48.792;9.260;2023-08-12T11:31:23;5.57;;;4.03;;
15356;SDS011;7778;48.792;9.260;2023-08-12T11:34:09;8.00;;;6.45;;
15356;SDS011;7778;48.792;9.260;2023-08-12T11:36:57;5.82;;;3.67;;
15356;SDS011;7778;48.792;9.260;2023-08-12T11:39:44;8.68;;;5.53;;
15356;SDS011;7778;48.792;9.260;2023-08-12T11:42:31;4.20;;;2.60;;
15356;SDS011;7778;48.792;9.260;2023-08-12T11:45:17;5.57;;;2.90;;
15356;SDS011;7778;48.792;9.260;2023-08-12T11:48:05;3.90;;;2.80;;
15356;SDS011;7778;48.792;9.260;2023-08-12T11:50:51;5.78;;;3.90;;
15356;SDS011;7778;48.792;9.260;2023-08-12T11:53:37;2.88;;;2.50;;
15356;SDS011;7778;48.792;9.260;2023-08-12T11:56:23;6.55;;;2.60;;
15356;SDS011;7778;48.792;9.260;2023-08-12T11:59:10;4.78;;;3.20;;
15356;SDS011;7778;48.792;9.260;2023-08-12T12:01:57;4.65;;;2.58;;
15356;SDS011;7778;48.792;9.260;2023-08-12T12:04:43;4.60;;;2.75;;
15356;SDS011;7778;48.792;9.260;2023-08-12T12:07:29;4.35;;;3.22;;
15356;SDS011;7778;48.792;9.260;2023-08-12T12:10:18;5.70;;;3.80;;
15356;SDS011;7778;48.792;9.260;2023-08-12T12:13:04;4.80;;;2.35;;
15356;SDS011;7778;48.792;9.260;2023-08-12T12:15:53;4.15;;;1.75;;
15356;SDS011;7778;48.792;9.260;2023-08-12T12:18:39;1.95;;;1.70;;
15356;SDS011;7778;48.792;9.260;2023-08-12T12:21:25;2.35;;;1.70;;
15356;SDS011;7778;48.792;9.260;2023-08-12T12:24:10;2.00;;;1.35;;
15356;SDS011;7778;48.792;9.260;2023-08-12T12:26:56;5.30;;;1.77;;
15356;SDS011;7778;48.792;9.260;2023-08-12T12:29:42;6.05;;;2.30;;
15356;SDS011;7778;48.792;9.260;2023-08-12T12:32:29;5.35;;;1.80;;
15356;SDS011;7778;48.792;9.260;2023-08-12T12:35:16;4.40;;;2.00;;
15356;SDS011;7778;48.792;9.260;2023-08-12T12:38:02;7.15;;;2.50;;
15356;SDS011;7778;48.792;9.260;2023-08-12T12:40:48;2.90;;;1.92;;
15356;SDS011;7778;48.792;9.260;2023-08-12T12:43:34;3.63;;;2.38;;
15356;SDS011;7778;48.792;9.260;2023-08-12T12:46:19;4.97;;;2.05;;
15356;SDS011;7778;48.792;9.260;2023-08-12T12:49:06;5.95;;;2.40;;
15356;SDS011;7778;48.792;9.260;2023-08-12T12:51:52;4.88;;;2.40;;
15356;SDS011;7778;48.792;9.260;2023-08-12T12:54:38;4.40;;;2.50;;
15356;SDS011;7778;48.792;9.260;2023-08-12T12:57:24;5.15;;;2.50;;
15356;SDS011;7778;48.792;9.260;2023-08-12T13:00:09;5.47;;;2.65;;
15356;SDS011;7778;48.792;9.260;2023-08-12T13:02:56;2.78;;;2.08;;
15356;SDS011;7778;48.792;9.260;2023-08-12T13:05:43;4.20;;;2.33;;
15356;SDS011;7778;48.792;9.260;2023-08-12T13:08:29;4.20;;;2.63;;
15356;SDS011;7778;48.792;9.260;2023-08-12T13:11:15;5.43;;;2.80;;
15356;SDS011;7778;48.792;9.260;2023-08-12T13:14:03;4.47;;;3.30;;
15356;SDS011;7778;48.792;9.260;2023-08-12T13:16:48;5.22;;;3.40;;
15356;SDS011;7778;48.792;9.260;2023-08-12T13:19:34;6.90;;;3.03;;
15356;SDS011;7778;48.792;9.260;2023-08-12T13:22:21;4.65;;;2.90;;
15356;SDS011;7778;48.792;9.260;2023-08-12T13:25:13;3.70;;;2.70;;
15356;SDS011;7778;48.792;9.260;2023-08-12T13:28:17;5.30;;;2.85;;
15356;SDS011;7778;48.792;9.260;2023-08-12T13:31:03;5.90;;;3.38;;
15356;SDS011;7778;48.792;9.260;2023-08-12T13:33:49;5.20;;;3.45;;
15356;SDS011;7778;48.792;9.260;2023-08-12T13:36:35;5.45;;;3.10;;
15356;SDS011;7778;48.792;9.260;2023-08-12T13:39:22;5.90;;;3.22;;
15356;SDS011;7778;48.792;9.260;2023-08-12T13:42:08;5.95;;;2.75;;
15356;SDS011;7778;48.792;9.260;2023-08-12T13:44:54;4.03;;;2.78;;
15356;SDS011;7778;48.792;9.260;2023-08-12T13:47:39;3.70;;;2.90;;
15356;SDS011;7778;48.792;9.260;2023-08-12T13:50:25;3.50;;;2.70;;
15356;SDS011;7778;48.792;9.260;2023-08-12T13:53:11;5.82;;;3.00;;
15356;SDS011;7778;48.792;9.260;2023-08-12T13:55:58;4.38;;;3.20;;
15356;SDS011;7778;48.792;9.260;2023-08-12T13:58:44;8.25;;;3.08;;
15356;SDS011;7778;48.792;9.260;2023-08-12T14:01:29;7.57;;;3.30;;
15356;SDS011;7778;48.792;9.260;2023-08-12T14:04:15;4.78;;;3.45;;
15356;SDS011;7778;48.792;9.260;2023-08-12T14:07:00;5.55;;;3.53;;
15356;SDS011;7778;48.792;9.260;2023-08-12T14:09:46;4.70;;;3.22;;
15356;SDS011;7778;48.792;9.260;2023-08-12T14:12:34;6.75;;;3.17;;
15356;SDS011;7778;48.792;9.260;2023-08-12T14:15:20;6.82;;;3.60;;
15356;SDS011;7778;48.792;9.260;2023-08-12T14:18:05;4.72;;;3.22;;
15356;SDS011;7778;48.792;9.260;2023-08-12T14:20:52;6.07;;;3.35;;
15356;SDS011;7778;48.792;9.260;2023-08-12T14:23:37;6.60;;;4.07;;
15356;SDS011;7778;48.792;9.260;2023-08-12T14:26:23;5.35;;;3.30;;
15356;SDS011;7778;48.792;9.260;2023-08-12T14:29:10;4.03;;;3.03;;
15356;SDS011;7778;48.792;9.260;2023-08-12T14:31:56;8.18;;;3.20;;
15356;SDS011;7778;48.792;9.260;2023-08-12T14:34:42;6.85;;;3.00;;
15356;SDS011;7778;48.792;9.260;2023-08-12T14:37:30;7.07;;;2.80;;
15356;SDS011;7778;48.792;9.260;2023-08-12T14:40:15;4.25;;;3.03;;
15356;SDS011;7778;48.792;9.260;2023-08-12T14:43:01;7.88;;;3.40;;
15356;SDS011;7778;48.792;9.260;2023-08-12T14:45:48;7.55;;;3.33;;
15356;SDS011;7778;48.792;9.260;2023-08-12T14:48:34;4.15;;;3.05;;
15356;SDS011;7778;48.792;9.260;2023-08-12T14:51:20;4.80;;;3.25;;
15356;SDS011;7778;48.792;9.260;2023-08-12T14:54:06;5.32;;;3.08;;
15356;SDS011;7778;48.792;9.260;2023-08-12T14:56:51;3.80;;;3.10;;
15356;SDS011;7778;48.792;9.260;2023-08-12T14:59:37;5.82;;;2.72;;
15356;SDS011;7778;48.792;9.260;2023-08-12T15:02:24;4.03;;;3.05;;
15356;SDS011;7778;48.792;9.260;2023-08-12T15:05:10;4.82;;;3.08;;
15356;SDS011;7778;48.792;9.260;2023-08-12T15:07:56;6.20;;;2.72;;
15356;SDS011;7778;48.792;9.260;2023-08-12T15:10:41;4.72;;;2.50;;
15356;SDS011;7778;48.792;9.260;2023-08-12T15:13:27;3.03;;;2.50;;
15356;SDS011;7778;48.792;9.260;2023-08-12T15:16:13;5.70;;;2.85;;
15356;SDS011;7778;48.792;9.260;2023-08-12T15:18:59;4.90;;;2.72;;
15356;SDS011;7778;48.792;9.260;2023-08-12T15:21:45;4.28;;;2.80;;
15356;SDS011;7778;48.792;9.260;2023-08-12T15:24:32;4.50;;;2.47;;
15356;SDS011;7778;48.792;9.260;2023-08-12T15:27:18;2.95;;;2.10;;
15356;SDS011;7778;48.792;9.260;2023-08-12T15:30:04;5.13;;;2.15;;
15356;SDS011;7778;48.792;9.260;2023-08-12T15:32:51;1.85;;;1.75;;
15356;SDS011;7778;48.792;9.260;2023-08-12T15:35:38;3.63;;;1.98;;
15356;SDS011;7778;48.792;9.260;2023-08-12T15:38:23;2.47;;;1.75;;
15356;SDS011;7778;48.792;9.260;2023-08-12T15:41:11;5.18;;;2.05;;
15356;SDS011;7778;48.792;9.260;2023-08-12T15:43:59;3.47;;;2.10;;
15356;SDS011;7778;48.792;9.260;2023-08-12T15:46:44;2.88;;;2.08;;
15356;SDS011;7778;48.792;9.260;2023-08-12T15:49:31;3.53;;;2.13;;
15356;SDS011;7778;48.792;9.260;2023-08-12T15:52:18;3.13;;;2.20;;
15356;SDS011;7778;48.792;9.260;2023-08-12T15:55:04;3.80;;;2.40;;
15356;SDS011;7778;48.792;9.260;2023-08-12T15:57:50;2.72;;;2.22;;
15356;SDS011;7778;48.792;9.260;2023-08-12T16:00:36;4.32;;;2.60;;
15356;SDS011;7778;48.792;9.260;2023-08-12T16:03:26;4.25;;;2.15;;
15356;SDS011;7778;48.792;9.260;2023-08-12T16:06:12;3.50;;;2.13;;
15356;SDS011;7778;48.792;9.260;2023-08-12T16:08:59;2.65;;;1.85;;
15356;SDS011;7778;48.792;9.260;2023-08-12T16:11:47;4.22;;;2.63;;
15356;SDS011;7778;48.792;9.260;2023-08-12T16:14:33;3.03;;;2.03;;
15356;SDS011;7778;48.792;9.260;2023-08-12T16:17:19;2.65;;;2.05;;
15356;SDS011;7778;48.792;9.260;2023-08-12T16:20:05;3.35;;;2.33;;
15356;SDS011;7778;48.792;9.260;2023-08-12T16:22:58;4.47;;;2.70;;
15356;SDS011;7778;48.792;9.260;2023-08-12T16:25:54;8.77;;;2.80;;
15356;SDS011;7778;48.792;9.260;2023-08-12T16:28:40;5.25;;;2.63;;
15356;SDS011;7778;48.792;9.260;2023-08-12T16:31:29;4.85;;;3.00;;
15356;SDS011;7778;48.792;9.260;2023-08-12T16:34:18;4.75;;;2.83;;
15356;SDS011;7778;48.792;9.260;2023-08-12T16:37:04;5.15;;;3.22;;
15356;SDS011;7778;48.792;9.260;2023-08-12T16:39:50;6.30;;;3.80;;
15356;SDS011;7778;48.792;9.260;2023-08-12T16:42:37;5.93;;;3.90;;
15356;SDS011;7778;48.792;9.260;2023-08-12T16:45:26;5.13;;;3.60;;
15356;SDS011;7778;48.792;9.260;2023-08-12T16:48:11;5.68;;;3.58;;
15356;SDS011;7778;48.792;9.260;2023-08-12T16:50:57;5.65;;;3.88;;
15356;SDS011;7778;48.792;9.260;2023-08-12T16:53:42;7.82;;;4.88;;
15356;SDS011;7778;48.792;9.260;2023-08-12T16:56:28;9.00;;;4.85;;
15356;SDS011;7778;48.792;9.260;2023-08-12T16:59:15;6.13;;;4.00;;